Airfield :
LOGIN :

Register | Disclaimer

   EN    FR    IT 

 










Legend :    VFR   Marginal VFR   IFR   Intensive IFR   Very Intensive IFR
Visi :
Ceiling :
>= 8 km
>= 3000ft
5 to 8 km
1000 to 3000 ft
1500m to 5 km
500 to 1000 ft
800 to 1500m
200 to 500 ft
< 800m
< 200 ft
Symbols :   Thunderstorms  Fog  Heavy snow  Heavy precipitations  Wind > 20 kt
SIGMETs :     Misc.  Thunderstorms  Icing  Turbulence  Mountain Waves  Volcanic Ashes






- Airport Elevation : 1046 ft
- IATA code : NUE


EDDN - Nuremberg

CURRENT METAR :
  • 282220Z AUTO 10004KT 5000 BR NSC 00/M00 Q1021

EXPIRED METARs :
  • 282150Z AUTO 10002KT 5000 BR NSC M00/M01 Q1022
  • 282120Z AUTO 06001KT 6000 0600 R10/P2000N BCFG NSC 00/M01 Q1022 NOSIG
  • 282050Z AUTO 09005KT 6000 NSC 01/00 Q1022 TEMPO 4500
  • 282020Z AUTO 10003KT 6000 NSC 02/01 Q1022 TEMPO 4500 BR
  • 281950Z AUTO 11004KT 5000 BR NSC 02/01 Q1022 TEMPO 4500
  • 281920Z AUTO VRB02KT 7000 NSC 03/01 Q1022 NOSIG
  • 281850Z AUTO VRB02KT 9999 4500 BR NCD 04/01 Q1022 NOSIG
  • 281820Z AUTO 18003KT 150V210 CAVOK 04/02 Q1022 BECMG 12003KT
  • 281750Z AUTO 19003KT CAVOK 05/02 Q1022 BECMG 12003KT

TAF TAF EDDN
Valid from the 28 at 18:00 until the 29 at 18:00 UTC


281700Z 2818/2918 12004KT 9999 FEW025
PROB30
TEMPO 2904/2907 1200 BCFG



MET'MAP, your aeronautical weather chart ! - Copyright ORBIFLY December 2007 - Disclaimer

ORBIFLY MET'MAP TEAM :

Programming & Development : Alexandra Zaïnal
Original concept : Baudouin d'Aumeries
Technical & hardware support : Manuel Goepfert
Assistance : Marc-Olivier Méhu




SOURCES & CREDITS :

   NOAA